KMKT

Mankato Regional Airport

Mankato, Minnesota, USA
METAR KMKT 190256Z AUTO 20008KT 10SM CLR 01/M02 A2978 RMK AO2 SLP099 T00111022 56009 FZRANO
Observed Flight Rules
Jan-19 @ 02:56 UTC (39 minutes ago) Visual Flight Rules
Wind Visibility Clouds
200° at 8 knots 10 miles
  • Clear skies
Temperatures Readings
Current 1°C / 34°F
Dewpoint -2°C / 28°F
Humidity 81%
Altimeter 29.78" Hg
Pressure 1009.9 hPa
Elevation 311
METAR KMKT 190256Z AUTO 20008KT 10SM CLR 01/M02 A2978 RMK AO2 SLP099 T00111022 56009 FZRANO
Observed Flight Rules
Jan-19 @ 02:56 UTC
(39 minutes ago)
VFR
Wind Visibility
200° at 8 knots 10 miles
Clouds
  • Clear skies
Temperature Dewpoint
1°C / 34°F -2°C / 28°F
Humidity Altimeter Pressure
81% 29.78" Hg 1009.9 hPa